Time;durP1;ratioP1;P1;durP2;ratioP2;P2;SDS_P1;SDS_P2;PMS_P1;PMS_P2;Temp;Humidity;BMP_temperature;BMP_pressure;BME280_temperature;BME280_humidity;BME280_pressure;Samples;Min_cycle;Max_cycle;Signal;HPM_P1;HPM_P2
2022/06/15 00:01:20;;;;;;;6.20;1.88;;;;;;;11.59;100.00;155435.50;4961488;28;20131;-83
2022/06/15 00:03:47;;;;;;;5.65;2.05;;;;;;;11.54;100.00;155422.66;4920117;29;20070;-84
2022/06/15 00:06:25;;;;;;;4.97;1.80;;;;;;;11.50;100.00;155413.66;4941280;28;20118;-84
2022/06/15 00:08:54;;;;;;;4.68;1.95;;;;;;;11.71;100.00;155465.00;4940090;29;20035;-82
2022/06/15 00:11:23;;;;;;;6.90;1.83;;;;;;;11.71;100.00;155465.00;4917589;28;20727;-82
2022/06/15 00:13:50;;;;;;;6.53;1.80;;;;;;;11.63;100.00;155445.75;4953986;28;20497;-77
2022/06/15 00:16:16;;;;;;;8.07;2.30;;;;;;;11.55;100.00;155426.50;4937360;29;20548;-81
2022/06/15 00:18:45;;;;;;;6.63;2.25;;;;;;;11.67;100.00;155456.03;4937958;29;20039;-80
2022/06/15 00:21:13;;;;;;;4.78;1.77;;;;;;;11.74;100.00;155472.72;4940506;28;20163;-82
2022/06/15 00:23:39;;;;;;;9.35;1.90;;;;;;;11.75;100.00;155476.53;4921751;29;20035;-80
2022/06/15 00:26:07;;;;;;;5.40;2.00;;;;;;;11.83;100.00;155497.13;4920027;28;20105;-80
2022/06/15 00:28:34;;;;;;;10.18;2.40;;;;;;;11.84;100.00;155498.38;4928926;29;20509;-80
2022/06/15 00:31:00;;;;;;;5.22;1.80;;;;;;;11.93;100.00;155521.56;4936100;28;20129;-81
2022/06/15 00:33:27;;;;;;;6.20;1.80;;;;;;;11.99;100.00;155536.94;4926778;29;20077;-80
2022/06/15 00:35:58;;;;;;;6.32;2.40;;;;;;;11.95;100.00;155525.41;4922631;29;20054;-80
2022/06/15 00:38:29;;;;;;;5.70;1.90;;;;;;;11.92;100.00;155517.69;4917375;29;20147;-81
2022/06/15 00:40:55;;;;;;;3.63;1.90;;;;;;;11.85;100.00;155502.25;4936063;29;20552;-81
2022/06/15 00:43:35;;;;;;;6.13;2.00;;;;;;;11.86;100.00;155503.53;4934270;28;20038;-78
2022/06/15 00:46:14;;;;;;;4.25;2.20;;;;;;;11.86;100.00;155503.53;4917747;28;20035;-79
2022/06/15 00:48:41;;;;;;;8.25;2.28;;;;;;;11.83;100.00;155495.84;4933509;29;20032;-82
2022/06/15 00:51:07;;;;;;;9.40;2.08;;;;;;;11.81;100.00;155492.00;4946158;28;20046;-83
2022/06/15 00:53:33;;;;;;;7.20;2.20;;;;;;;11.84;100.00;155499.66;4932318;29;20046;-82
2022/06/15 00:55:59;;;;;;;3.92;2.20;;;;;;;11.92;100.00;155517.69;4932254;28;20044;-81
2022/06/15 00:58:25;;;;;;;5.55;2.05;;;;;;;11.88;100.00;155509.97;4928410;29;20031;-83
2022/06/15 01:00:53;;;;;;;5.22;1.90;;;;;;;11.84;100.00;155499.66;4933214;29;20451;-84
2022/06/15 01:03:20;;;;;;;3.70;1.90;;;;;;;11.86;100.00;155504.78;4953112;28;20152;-85
2022/06/15 01:05:57;;;;;;;5.90;2.05;;;;;;;11.84;100.00;155498.38;4947772;28;20094;-85
2022/06/15 01:08:33;;;;;;;4.63;1.83;;;;;;;11.90;100.00;155513.84;4926895;28;20043;-81
2022/06/15 01:11:27;;;;;;;4.70;1.67;;;;;;;11.95;100.00;155525.41;4923040;28;20502;-82
2022/06/15 01:14:20;;;;;;;5.00;2.50;;;;;;;11.93;100.00;155521.56;4944324;28;20098;-80
2022/06/15 01:16:52;;;;;;;3.95;2.15;;;;;;;11.83;100.00;155495.84;4935737;29;20063;-81
2022/06/15 01:20:01;;;;;;;5.60;2.10;;;;;;;11.75;100.00;155476.53;4913657;28;20048;-81
2022/06/15 01:22:50;;;;;;;8.45;2.30;;;;;;;11.72;100.00;155467.59;4927031;29;20067;-81
2022/06/15 01:25:25;;;;;;;8.25;2.15;;;;;;;11.66;100.00;155453.47;4960846;28;20293;-81
2022/06/15 01:28:32;;;;;;;5.40;2.35;;;;;;;11.67;100.00;155456.03;4959284;28;20502;-82
2022/06/15 01:31:10;;;;;;;4.90;2.15;;;;;;;11.67;100.00;155457.28;4948491;28;20046;-81
2022/06/15 01:34:16;;;;;;;8.20;2.40;;;;;;;11.73;100.00;155470.16;4938923;29;20110;-82
2022/06/15 01:36:51;;;;;;;3.95;2.17;;;;;;;11.58;100.00;155432.91;4952199;28;20034;-82
2022/06/15 01:39:23;;;;;;;10.05;2.53;;;;;;;11.51;100.00;155416.25;4941276;28;20047;-84
2022/06/15 01:42:05;;;;;;;9.82;2.38;;;;;;;11.47;100.00;155407.25;4961621;28;20035;-80
2022/06/15 01:44:32;;;;;;;6.70;2.25;;;;;;;11.52;100.00;155418.78;4926754;29;20121;-81
2022/06/15 01:47:05;;;;;;;5.10;2.40;;;;;;;11.56;100.00;155427.78;4951037;28;20035;-81
2022/06/15 01:49:38;;;;;;;8.25;2.17;;;;;;;11.53;100.00;155420.06;4947643;28;20031;-81
2022/06/15 01:52:07;;;;;;;7.88;2.30;;;;;;;11.53;100.00;155420.06;4935291;28;20043;-81
2022/06/15 01:54:42;;;;;;;6.35;2.55;;;;;;;11.52;100.00;155418.78;4918929;29;20200;-84
2022/06/15 01:57:11;;;;;;;4.78;2.38;;;;;;;11.53;100.00;155420.06;4940901;28;20445;-82
2022/06/15 02:00:00;;;;;;;9.70;3.00;;;;;;;11.50;100.00;155413.66;4927817;29;20135;-82
2022/06/15 02:02:39;;;;;;;11.38;2.70;;;;;;;11.50;100.00;155414.94;4900448;29;20035;-81
2022/06/15 02:05:18;;;;;;;6.82;3.03;;;;;;;11.53;100.00;155421.38;4950784;28;20035;-79
2022/06/15 02:07:56;;;;;;;6.60;2.65;;;;;;;11.53;100.00;155420.06;4931075;29;20038;-83
2022/06/15 02:10:28;;;;;;;5.63;2.15;;;;;;;11.58;100.00;155434.19;4959456;28;20162;-83
2022/06/15 02:13:19;;;;;;;7.37;2.57;;;;;;;11.56;100.00;155429.06;4960116;28;20093;-81
2022/06/15 02:15:50;;;;;;;5.78;2.40;;;;;;;11.59;100.00;155435.50;4901362;29;20031;-83
2022/06/15 02:18:20;;;;;;;8.98;2.50;;;;;;;11.58;100.00;155432.91;4938298;28;20042;-83
2022/06/15 02:20:51;;;;;;;3.85;2.10;;;;;;;11.57;100.00;155431.63;4942341;29;20046;-82
2022/06/15 02:23:19;;;;;;;4.47;2.10;;;;;;;11.57;100.00;155430.38;4944791;29;20038;-82
2022/06/15 02:25:52;;;;;;;6.18;2.13;;;;;;;11.60;100.00;155438.03;4917066;29;20138;-81
2022/06/15 02:28:21;;;;;;;6.55;2.65;;;;;;;11.63;100.00;155445.75;4930564;29;20043;-82
2022/06/15 02:30:47;;;;;;;4.38;2.30;;;;;;;11.69;100.00;155462.44;4906748;29;20479;-81
2022/06/15 02:33:27;;;;;;;7.20;2.20;;;;;;;11.71;100.00;155466.28;4951405;28;20039;-84
2022/06/15 02:35:56;;;;;;;7.88;2.50;;;;;;;11.69;100.00;155461.16;4936791;29;20043;-82
2022/06/15 02:38:21;;;;;;;5.43;2.33;;;;;;;11.81;100.00;155490.66;4928807;29;20032;-82
2022/06/15 02:40:47;;;;;;;7.40;2.25;;;;;;;11.91;100.00;155515.16;4936890;29;20047;-83
2022/06/15 02:43:19;;;;;;;5.75;2.33;;;;;;;11.99;100.00;155535.69;4918003;29;20558;-82
2022/06/15 02:45:48;;;;;;;5.40;2.03;;;;;;;11.99;100.00;155535.69;4893345;29;20136;-82
2022/06/15 02:48:16;;;;;;;6.43;2.45;;;;;;;11.93;100.00;155521.56;4931124;28;20589;-82
2022/06/15 02:50:54;;;;;;;4.85;2.53;;;;;;;11.92;100.00;155518.97;4936180;29;20067;-82
2022/06/15 02:53:25;;;;;;;5.03;2.25;;;;;;;11.96;100.00;155527.97;4943349;29;20035;-82
2022/06/15 02:55:53;;;;;;;4.95;2.13;;;;;;;11.96;100.00;155527.97;4940166;29;20134;-84
2022/06/15 02:58:27;;;;;;;4.65;2.67;;;;;;;11.90;100.00;155513.84;4925793;29;20039;-83
2022/06/15 03:00:55;;;;;;;7.50;2.60;;;;;;;11.81;100.00;155492.00;4950402;28;20035;-86
2022/06/15 03:03:26;;;;;;;7.68;2.70;;;;;;;11.86;100.00;155504.78;4926217;28;20038;-83
2022/06/15 03:06:02;;;;;;;7.68;2.83;;;;;;;12.11;100.00;155566.53;4940775;29;20035;-84
2022/06/15 03:08:28;;;;;;;5.60;2.72;;;;;;;12.22;100.00;155593.47;4928714;29;20118;-82
2022/06/15 03:11:01;;;;;;;4.95;2.90;;;;;;;12.34;100.00;155622.97;4916686;29;20090;-84
2022/06/15 03:13:27;;;;;;;3.47;2.40;;;;;;;12.22;100.00;155593.47;4940396;29;20113;-82
2022/06/15 03:15:58;;;;;;;5.78;2.53;;;;;;;12.17;100.00;155581.91;4939867;28;20190;-79
2022/06/15 03:18:25;;;;;;;10.57;2.40;;;;;;;12.03;100.00;155547.22;4924179;28;20040;-84
2022/06/15 03:21:00;;;;;;;5.63;2.80;;;;;;;11.99;100.00;155535.69;4924224;29;20038;-83
2022/06/15 03:23:26;;;;;;;8.18;2.55;;;;;;;11.96;100.00;155529.28;4897546;29;20067;-83
2022/06/15 03:25:57;;;;;;;5.85;2.63;;;;;;;11.94;100.00;155522.81;4940379;28;20035;-84
2022/06/15 03:28:24;;;;;;;7.30;2.67;;;;;;;11.98;100.00;155534.41;4936206;29;20039;-84
2022/06/15 03:30:50;;;;;;;6.80;2.80;;;;;;;11.89;100.00;155511.25;4950576;28;20094;-82
2022/06/15 03:33:17;;;;;;;6.05;2.60;;;;;;;11.85;100.00;155500.97;4947621;28;20047;-83
2022/06/15 03:35:44;;;;;;;8.13;2.70;;;;;;;11.87;100.00;155506.13;4935359;29;20039;-83
2022/06/15 03:38:18;;;;;;;9.30;2.67;;;;;;;11.88;100.00;155509.97;4938564;29;20039;-83
2022/06/15 03:40:50;;;;;;;5.28;2.88;;;;;;;11.90;100.00;155512.56;4936208;29;20039;-83
2022/06/15 03:43:17;;;;;;;5.05;2.67;;;;;;;11.93;100.00;155521.56;4942580;29;20046;-83
2022/06/15 03:45:43;;;;;;;4.90;2.20;;;;;;;11.95;100.00;155526.69;4924361;29;20035;-83
2022/06/15 03:48:11;;;;;;;6.65;2.55;;;;;;;12.03;100.00;155547.22;4939437;28;20518;-83
2022/06/15 03:50:37;;;;;;;5.60;2.80;;;;;;;11.99;100.00;155535.69;4926486;29;20050;-85
2022/06/15 03:53:05;;;;;;;6.03;2.50;;;;;;;12.04;100.00;155548.53;4938144;29;20039;-81
2022/06/15 03:55:35;;;;;;;6.22;2.80;;;;;;;12.08;100.00;155558.81;4921125;29;20067;-83
2022/06/15 03:58:11;;;;;;;5.47;2.78;;;;;;;12.37;100.00;155631.97;4945628;28;20127;-84
2022/06/15 04:00:37;;;;;;;5.05;2.53;;;;;;;12.46;100.00;155653.84;4955962;28;20040;-82
2022/06/15 04:03:11;;;;;;;6.00;3.22;;;;;;;12.43;100.00;155647.44;4923459;28;20130;-82
2022/06/15 04:05:53;;;;;;;3.47;2.70;;;;;;;12.37;100.00;155630.72;4916316;29;20036;-82
2022/06/15 04:08:42;;;;;;;6.85;2.50;;;;;;;12.38;100.00;155633.28;4928932;29;20042;-81
2022/06/15 04:14:16;;;;;;;8.88;2.95;;;;;;;12.59;100.00;155685.97;4929543;28;20042;-82
2022/06/15 04:16:53;;;;;;;6.60;2.95;;;;;;;12.65;100.00;155701.34;4942904;29;20040;-82
2022/06/15 04:19:25;;;;;;;6.93;2.92;;;;;;;12.67;100.00;155706.50;4934083;28;20103;-82
2022/06/15 04:21:51;;;;;;;6.18;2.65;;;;;;;12.79;100.00;155736.03;4927592;29;20066;-83
2022/06/15 04:24:18;;;;;;;7.20;3.10;;;;;;;12.91;100.00;155765.59;4935875;29;20157;-83
2022/06/15 04:26:46;;;;;;;6.53;2.58;;;;;;;12.93;100.00;155770.75;4938063;29;20043;-82
2022/06/15 04:29:17;;;;;;;5.57;2.83;;;;;;;12.94;100.00;155773.28;4937111;28;20138;-83
2022/06/15 04:31:43;;;;;;;5.35;2.60;;;;;;;12.93;100.00;155770.75;4943977;29;20058;-82
2022/06/15 04:34:11;;;;;;;4.97;2.13;;;;;;;12.96;100.00;155778.44;4938154;28;20138;-84
2022/06/15 04:36:39;;;;;;;4.95;3.00;;;;;;;12.99;100.00;155787.41;4935917;29;20039;-83
2022/06/15 04:39:08;;;;;;;3.67;2.30;;;;;;;13.03;100.00;155797.75;4949289;29;20078;-82
2022/06/15 04:41:39;;;;;;;;;;;;;;;13.07;100.00;155806.69;4946365;29;20541;-81
2022/06/15 04:44:06;;;;;;;4.72;2.40;;;;;;;13.09;100.00;155810.56;4949027;29;19965;-81
2022/06/15 04:46:34;;;;;;;3.65;2.15;;;;;;;13.11;100.00;155815.69;4939404;29;20573;-82
2022/06/15 04:49:00;;;;;;;5.05;2.53;;;;;;;13.17;100.00;155832.41;4923958;28;20043;-82
2022/06/15 04:51:40;;;;;;;5.90;2.72;;;;;;;13.33;100.00;155871.00;4954029;28;20042;-82
2022/06/15 04:54:09;;;;;;;4.35;2.50;;;;;;;13.42;100.00;155894.16;4912151;29;20146;-83
2022/06/15 04:56:39;;;;;;;5.07;2.45;;;;;;;13.38;100.00;155883.88;4920499;29;20529;-86
2022/06/15 04:59:09;;;;;;;5.18;2.30;;;;;;;13.37;100.00;155882.59;4908348;28;20044;-82
2022/06/15 05:01:34;;;;;;;5.75;2.63;;;;;;;13.42;100.00;155894.16;4917422;29;20035;-86
2022/06/15 05:04:00;;;;;;;6.18;2.60;;;;;;;13.46;100.00;155903.16;4926188;28;20070;-83
2022/06/15 05:06:40;;;;;;;5.53;2.90;;;;;;;13.50;100.00;155913.41;4937401;28;20043;-81
2022/06/15 05:09:12;;;;;;;7.33;2.80;;;;;;;13.61;100.00;155941.69;4937610;29;20035;-82
2022/06/15 05:11:38;;;;;;;7.30;2.47;;;;;;;13.71;100.00;155967.44;4938564;29;20364;-82
2022/06/15 05:14:04;;;;;;;4.70;2.13;;;;;;;13.78;100.00;155985.41;4911873;28;20031;-82
2022/06/15 05:16:34;;;;;;;4.80;2.00;;;;;;;13.86;100.00;156004.66;4953783;28;20035;-83
2022/06/15 05:19:01;;;;;;;6.10;2.28;;;;;;;13.91;100.00;156017.53;4925655;28;20422;-82
2022/06/15 05:21:31;;;;;;;6.50;2.60;;;;;;;14.11;100.00;156066.38;4919451;29;20043;-82
2022/06/15 05:23:57;;;;;;;8.15;2.35;;;;;;;14.26;100.00;156105.00;4925602;29;20159;-83
2022/06/15 05:26:45;;;;;;;7.20;2.15;;;;;;;14.32;100.00;156120.41;4932450;29;20042;-82
2022/06/15 05:29:10;;;;;;;12.52;2.15;;;;;;;14.42;100.00;156144.84;4935220;29;20480;-83
2022/06/15 05:31:36;;;;;;;6.28;2.47;;;;;;;14.49;100.00;156162.84;4926624;29;20046;-82
2022/06/15 05:34:02;;;;;;;6.72;2.58;;;;;;;14.52;100.00;156169.25;4934425;28;20042;-78
2022/06/15 05:36:35;;;;;;;5.18;2.35;;;;;;;14.58;100.00;156184.78;4912182;29;20105;-81
2022/06/15 05:39:04;;;;;;;5.13;2.50;;;;;;;14.65;100.00;156202.75;4934712;28;20035;-81
2022/06/15 05:41:31;;;;;;;6.28;2.60;;;;;;;14.59;100.00;156187.31;4941103;28;20119;-82
2022/06/15 05:44:01;;;;;;;4.38;2.08;;;;;;;14.65;100.00;156202.75;4931971;29;20127;-82
2022/06/15 05:46:32;;;;;;;8.50;2.38;;;;;;;14.71;100.00;156216.91;4916237;29;20126;-81
2022/06/15 05:49:17;;;;;;;6.50;2.47;;;;;;;14.81;100.00;156242.66;4919674;28;20054;-83
2022/06/15 05:51:44;;;;;;;8.27;2.15;;;;;;;14.82;100.00;156243.91;4918883;29;20052;-82
2022/06/15 05:54:11;;;;;;;3.05;1.80;;;;;;;14.93;100.00;156273.50;4887162;29;20441;-81
2022/06/15 05:56:37;;;;;;;6.82;2.05;;;;;;;15.02;98.92;156294.09;4915184;29;20039;-82
2022/06/15 05:59:02;;;;;;;5.20;1.58;;;;;;;15.06;99.86;156304.38;4928603;28;20521;-78
2022/06/15 06:01:31;;;;;;;4.53;1.60;;;;;;;15.11;97.98;156318.53;4908985;29;20040;-83
2022/06/15 06:03:57;;;;;;;3.45;1.50;;;;;;;15.15;98.48;156327.56;4914473;29;20075;-82
2022/06/15 06:06:23;;;;;;;6.40;1.90;;;;;;;15.19;96.03;156339.09;4938676;28;20043;-82
2022/06/15 06:08:49;;;;;;;5.50;1.45;;;;;;;15.20;97.85;156340.44;4931173;29;20437;-79
2022/06/15 06:11:15;;;;;;;3.28;1.33;;;;;;;15.10;97.10;156315.94;4925981;29;20040;-82
2022/06/15 06:13:41;;;;;;;6.13;1.85;;;;;;;15.18;99.15;156336.56;4933173;29;20031;-81
2022/06/15 06:16:07;;;;;;;5.18;1.40;;;;;;;15.29;96.30;156363.53;4934242;28;20058;-82
2022/06/15 06:18:33;;;;;;;4.72;1.35;;;;;;;15.42;93.55;156395.72;4924868;29;20034;-80
2022/06/15 06:20:59;;;;;;;2.70;1.50;;;;;;;15.40;91.97;156389.31;4921876;29;20035;-80
2022/06/15 06:23:25;;;;;;;5.32;1.98;;;;;;;15.46;93.98;156406.00;4929529;29;20039;-80
2022/06/15 06:25:52;;;;;;;7.50;1.73;;;;;;;15.42;92.66;156394.44;4930148;29;20083;-82
2022/06/15 06:28:21;;;;;;;4.85;1.52;;;;;;;15.54;93.95;156426.63;4917830;29;20049;-82
2022/06/15 06:30:46;;;;;;;5.07;1.55;;;;;;;15.53;93.48;156422.75;4924457;29;20430;-82
2022/06/15 06:33:12;;;;;;;4.78;1.45;;;;;;;15.58;92.88;156436.91;4919023;28;20039;-79
2022/06/15 06:35:38;;;;;;;4.05;1.42;;;;;;;15.72;91.96;156470.38;4933455;28;20039;-82
2022/06/15 06:38:04;;;;;;;6.18;1.30;;;;;;;15.79;89.81;156488.44;4933545;29;20482;-85
2022/06/15 06:40:29;;;;;;;3.95;1.27;;;;;;;15.88;90.45;156510.28;4948331;28;20039;-82
2022/06/15 06:42:55;;;;;;;4.45;1.27;;;;;;;15.88;90.56;156511.63;4928455;29;20039;-83
2022/06/15 06:45:21;;;;;;;4.05;1.50;;;;;;;15.93;92.39;156524.44;4917802;28;20031;-79
2022/06/15 06:47:46;;;;;;;5.78;1.67;;;;;;;16.02;89.64;156546.34;4942438;28;20252;-81
2022/06/15 06:50:12;;;;;;;8.00;1.75;;;;;;;16.15;87.44;156578.53;4917180;28;20036;-81
2022/06/15 06:52:38;;;;;;;5.13;2.05;;;;;;;16.18;87.87;156586.28;4923282;29;20028;-84
2022/06/15 06:55:05;;;;;;;7.75;1.80;;;;;;;16.25;89.38;156603.00;4904621;29;20142;-84
2022/06/15 06:57:30;;;;;;;6.38;1.63;;;;;;;16.29;87.14;156614.59;4916136;29;20127;-85
2022/06/15 06:59:56;;;;;;;4.10;1.52;;;;;;;16.39;86.73;156639.06;4912121;29;20126;-81
2022/06/15 07:02:21;;;;;;;5.72;1.90;;;;;;;16.49;86.33;156664.78;4939928;28;20066;-81
2022/06/15 07:04:47;;;;;;;4.93;1.70;;;;;;;16.55;83.57;156680.22;4945922;28;20058;-81
2022/06/15 07:07:13;;;;;;;5.57;1.73;;;;;;;16.68;85.41;156712.44;4917847;29;20036;-83
2022/06/15 07:09:39;;;;;;;8.65;1.77;;;;;;;16.86;85.84;156757.56;4934009;29;20402;-82
2022/06/15 07:12:05;;;;;;;6.18;1.85;;;;;;;17.07;82.39;156810.38;4932760;29;20498;-80
2022/06/15 07:14:30;;;;;;;6.05;1.95;;;;;;;17.26;81.08;156856.75;4917284;29;20495;-86
2022/06/15 07:16:56;;;;;;;6.60;1.60;;;;;;;17.39;78.57;156888.97;4941176;28;20467;-84
2022/06/15 07:19:22;;;;;;;5.57;1.70;;;;;;;17.39;80.73;156888.97;4917679;28;20616;-82
2022/06/15 07:21:47;;;;;;;3.80;1.38;;;;;;;17.56;78.04;156931.47;4950805;28;20047;-80
2022/06/15 07:24:13;;;;;;;7.90;1.55;;;;;;;17.62;76.17;156946.91;4930336;29;20477;-81
2022/06/15 07:26:43;;;;;;;8.85;1.60;;;;;;;17.64;76.23;156952.06;4919236;28;20044;-81
2022/06/15 07:29:12;;;;;;;5.15;1.60;;;;;;;17.81;78.12;156995.88;4945081;28;20415;-82
2022/06/15 07:31:40;;;;;;;4.95;1.10;;;;;;;18.04;76.30;157052.63;4937242;29;20035;-82
2022/06/15 07:34:08;;;;;;;2.75;1.15;;;;;;;18.11;71.51;157069.38;4930702;28;20066;-82
2022/06/15 07:36:36;;;;;;;6.03;1.90;;;;;;;18.13;73.48;157074.53;4909744;29;20031;-84
2022/06/15 07:39:03;;;;;;;3.20;1.10;;;;;;;18.15;72.26;157080.97;4939650;28;20099;-83
2022/06/15 07:41:29;;;;;;;4.72;1.20;;;;;;;17.99;72.20;157039.72;4918009;28;20126;-82
2022/06/15 07:43:55;;;;;;;3.65;0.90;;;;;;;18.06;72.41;157059.09;4910037;29;20135;-82
2022/06/15 07:46:22;;;;;;;6.60;1.10;;;;;;;18.22;71.01;157099.03;4926828;28;20066;-84
2022/06/15 07:51:39;;;;;;;2.85;0.80;;;;;;;18.29;68.01;157117.06;4949153;28;20491;-83
2022/06/15 07:54:09;;;;;;;5.22;1.00;;;;;;;18.44;69.28;157154.47;4909762;29;20039;-80
2022/06/15 07:56:37;;;;;;;3.10;1.00;;;;;;;18.40;68.59;157142.81;4921308;29;20050;-81
2022/06/15 07:59:03;;;;;;;5.22;1.30;;;;;;;18.45;66.36;157155.72;4920125;29;20094;-79
2022/06/15 08:01:29;;;;;;;5.93;1.02;;;;;;;18.49;65.77;157166.03;4914499;29;20071;-81
2022/06/15 08:03:55;;;;;;;4.03;1.00;;;;;;;18.73;70.73;157225.34;4917622;29;20043;-82
2022/06/15 08:06:22;;;;;;;3.33;1.00;;;;;;;19.02;66.34;157300.19;4945297;28;20071;-81
2022/06/15 08:08:48;;;;;;;5.13;1.40;;;;;;;19.04;66.50;157305.34;4936791;29;20047;-81
2022/06/15 08:11:14;;;;;;;3.65;1.20;;;;;;;19.04;68.31;157304.03;4951310;28;20033;-83
2022/06/15 08:13:41;;;;;;;2.25;0.90;;;;;;;19.12;68.03;157323.34;4932137;29;20047;-80
2022/06/15 08:16:08;;;;;;;3.40;0.90;;;;;;;19.18;68.11;157338.88;4914431;28;20035;-82
2022/06/15 08:18:38;;;;;;;3.53;1.30;;;;;;;19.21;63.74;157346.56;4942555;28;20039;-84
2022/06/15 08:21:09;;;;;;;3.95;1.25;;;;;;;19.38;67.14;157389.13;4929680;28;20142;-80
2022/06/15 08:23:37;;;;;;;2.42;1.10;;;;;;;19.49;66.03;157417.50;4933414;29;20055;-82
2022/06/15 08:26:08;;;;;;;3.50;0.90;;;;;;;19.44;67.57;157405.91;4928918;28;20066;-79
2022/06/15 08:28:41;;;;;;;5.15;1.20;;;;;;;19.37;64.24;157386.56;4930360;29;20049;-86
2022/06/15 08:31:07;;;;;;;4.82;1.00;;;;;;;19.52;64.64;157423.97;4938194;28;20051;-81
2022/06/15 08:33:33;;;;;;;2.20;0.90;;;;;;;19.92;64.54;157524.63;4946434;28;20046;-81
2022/06/15 08:35:59;;;;;;;4.60;1.00;;;;;;;19.89;63.12;157518.19;4916384;29;20134;-80
2022/06/15 08:38:27;;;;;;;4.82;1.33;;;;;;;19.91;61.30;157522.03;4915520;29;20107;-85
2022/06/15 08:41:06;;;;;;;3.45;1.23;;;;;;;19.53;62.69;157427.81;4921870;29;20031;-83
2022/06/15 08:43:42;;;;;;;3.50;1.23;;;;;;;19.64;58.47;157454.91;4918475;29;20156;-80
2022/06/15 08:46:21;;;;;;;2.03;0.80;;;;;;;19.67;61.09;157461.38;4932937;28;20137;-83
2022/06/15 08:48:58;;;;;;;3.97;0.80;;;;;;;19.74;61.95;157480.78;4922921;29;20422;-85
2022/06/15 08:51:30;;;;;;;5.82;1.00;;;;;;;19.68;61.24;157465.22;4919516;29;20042;-83
2022/06/15 08:54:04;;;;;;;2.60;0.90;;;;;;;19.86;59.60;157509.16;4928120;29;20138;-80
2022/06/15 08:56:42;;;;;;;2.38;1.10;;;;;;;20.00;64.21;157546.56;4929468;29;20086;-84
2022/06/15 08:59:40;;;;;;;4.22;1.40;;;;;;;19.35;59.41;157382.69;4934912;28;20039;-83
2022/06/15 09:02:16;;;;;;;6.68;1.20;;;;;;;18.81;59.36;157246.00;4928187;28;20050;-82
2022/06/15 09:04:58;;;;;;;4.68;1.40;;;;;;;18.37;63.31;157136.41;4928355;28;20059;-78
2022/06/15 09:07:48;;;;;;;2.88;1.05;;;;;;;18.59;66.78;157191.84;4946881;28;20075;-82
2022/06/15 09:10:32;;;;;;;5.00;1.42;;;;;;;19.22;63.97;157350.44;4940884;28;20039;-82
2022/06/15 09:13:39;;;;;;;4.47;1.00;;;;;;;20.11;55.45;157572.34;4950295;28;20039;-79
2022/06/15 09:16:17;;;;;;;2.78;1.20;;;;;;;20.24;51.45;157605.91;4930977;28;20046;-81
2022/06/15 09:19:07;;;;;;;7.93;1.20;;;;;;;20.33;52.78;157629.13;4952566;28;20043;-82
2022/06/15 09:21:36;;;;;;;5.95;1.40;;;;;;;20.48;53.93;157666.56;4927780;29;20036;-84
2022/06/15 09:24:23;;;;;;;7.93;1.52;;;;;;;20.75;52.48;157734.97;4931370;28;20081;-81
2022/06/15 09:26:59;;;;;;;5.95;1.20;;;;;;;21.11;50.40;157824.03;4931294;29;20044;-82
2022/06/15 09:29:36;;;;;;;5.45;1.08;;;;;;;21.67;58.31;157966.09;4905934;29;20074;-82
2022/06/15 09:32:14;;;;;;;4.47;1.08;;;;;;;21.98;48.87;158043.56;4934563;28;20127;-77
2022/06/15 09:34:43;;;;;;;3.70;1.20;;;;;;;22.42;51.31;158153.44;4929622;29;20142;-83
2022/06/15 09:37:16;;;;;;;6.85;1.30;;;;;;;22.16;51.66;158088.78;4925205;29;20701;-81
2022/06/15 09:39:42;;;;;;;6.55;1.58;;;;;;;22.31;52.24;158127.59;4947994;28;20067;-83
2022/06/15 09:42:19;;;;;;;4.97;1.40;;;;;;;22.09;48.52;158070.72;4935121;28;20081;-81
2022/06/15 09:45:01;;;;;;;4.65;1.20;;;;;;;21.28;50.22;157866.66;4939375;29;20134;-81
2022/06/15 09:48:00;;;;;;;5.82;1.40;;;;;;;20.59;52.95;157693.66;4916013;29;20046;-80
2022/06/15 09:50:39;;;;;;;7.35;1.38;;;;;;;20.34;53.89;157630.41;4913317;28;20178;-82
2022/06/15 09:53:28;;;;;;;10.65;1.73;;;;;;;20.19;57.10;157592.97;4935201;28;20548;-82
2022/06/15 09:55:56;;;;;;;7.93;1.30;;;;;;;20.00;63.56;157546.56;4922273;28;20043;-82
2022/06/15 09:58:31;;;;;;;3.53;1.13;;;;;;;19.97;62.72;157537.53;4901941;29;20031;-82
2022/06/15 10:00:57;;;;;;;6.47;1.33;;;;;;;19.83;65.02;157504.00;4925821;29;20056;-83
2022/06/15 10:03:32;;;;;;;2.80;1.15;;;;;;;19.82;63.24;157501.41;4927605;28;20069;-82
2022/06/15 10:06:28;;;;;;;4.32;1.48;;;;;;;19.73;65.31;157478.19;4944027;28;20046;-82
2022/06/15 10:08:57;;;;;;;7.38;1.90;;;;;;;19.69;63.19;157466.53;4904198;28;20040;-84
2022/06/15 10:11:45;;;;;;;6.63;1.80;;;;;;;20.17;58.95;157589.16;4932529;29;21053;-84
2022/06/15 10:14:19;;;;;;;4.53;1.80;;;;;;;21.05;57.55;157809.84;4907626;29;20094;-83
2022/06/15 10:16:54;;;;;;;6.35;1.92;;;;;;;21.43;52.28;157905.38;4927236;29;20043;-80
2022/06/15 10:19:22;;;;;;;6.32;1.77;;;;;;;21.78;52.78;157993.25;4934152;28;20031;-82
2022/06/15 10:21:53;;;;;;;7.20;2.35;;;;;;;22.50;52.35;158174.09;4934839;29;20039;-83
2022/06/15 10:24:31;;;;;;;9.73;1.77;;;;;;;22.68;47.11;158219.31;4931608;28;20453;-80
2022/06/15 10:27:15;;;;;;;6.97;2.13;;;;;;;22.55;47.73;158188.31;4923032;29;20752;-79
2022/06/15 10:29:41;;;;;;;6.65;1.88;;;;;;;22.21;47.67;158100.41;4927325;29;20087;-81
2022/06/15 10:32:08;;;;;;;4.72;1.50;;;;;;;22.47;49.84;158167.66;4928447;28;20046;-80
2022/06/15 10:34:50;;;;;;;6.00;1.60;;;;;;;22.40;49.41;158149.56;4927138;29;20098;-80
2022/06/15 10:37:22;;;;;;;8.23;2.20;;;;;;;22.66;48.32;158215.44;4944657;28;20031;-83
2022/06/15 10:39:52;;;;;;;8.48;1.83;;;;;;;22.98;49.08;158294.22;4946239;28;20070;-81
2022/06/15 10:42:24;;;;;;;7.47;1.88;;;;;;;23.33;48.88;158383.44;4908724;28;20542;-83
2022/06/15 10:44:59;;;;;;;4.30;1.52;;;;;;;23.57;47.91;158444.19;4931094;29;20036;-81
2022/06/15 10:47:51;;;;;;;7.00;1.60;;;;;;;22.48;56.05;158168.94;4910543;28;20100;-81
2022/06/15 10:50:26;;;;;;;8.32;1.75;;;;;;;21.72;56.67;157977.75;4942632;28;20130;-80
2022/06/15 10:53:04;;;;;;;8.02;1.48;;;;;;;21.91;56.22;158026.81;4903900;29;20043;-83
2022/06/15 11:04:16;;;;;;;7.40;1.88;;;;;;;22.70;46.21;158224.50;4907628;28;20051;-81
2022/06/15 11:06:47;;;;;;;7.32;1.83;;;;;;;22.49;47.42;158171.50;4924600;28;20111;-79
2022/06/15 11:09:27;;;;;;;6.30;1.67;;;;;;;22.97;44.43;158291.66;4925776;28;20037;-82
2022/06/15 11:11:53;;;;;;;10.73;1.63;;;;;;;23.01;45.42;158302.00;4926179;28;20042;-80
2022/06/15 11:14:24;;;;;;;7.25;1.90;;;;;;;23.19;47.34;158348.56;4923294;28;20097;-82
2022/06/15 11:19:51;;;;;;;7.20;1.80;;;;;;;23.38;48.21;158395.09;4921561;29;20039;-80
2022/06/15 11:22:19;;;;;;;6.00;2.00;;;;;;;23.61;48.81;158454.53;4917451;28;20051;-83
2022/06/15 11:24:59;;;;;;;6.63;1.80;;;;;;;23.65;45.87;158464.84;4931553;29;20126;-80
2022/06/15 11:27:36;;;;;;;7.07;2.20;;;;;;;23.89;42.99;158524.38;4950069;28;20032;-78
2022/06/15 11:30:11;;;;;;;7.25;2.05;;;;;;;24.35;45.17;158640.72;4945055;28;20066;-77
2022/06/15 11:32:40;;;;;;;8.57;1.95;;;;;;;24.09;41.40;158576.09;4947634;28;20130;-81
2022/06/15 11:35:11;;;;;;;3.95;1.50;;;;;;;23.84;42.85;158511.44;4933913;28;20082;-80
2022/06/15 11:38:15;;;;;;;6.00;1.98;;;;;;;23.95;43.03;158538.59;4922760;29;20073;-81
2022/06/15 11:40:47;;;;;;;6.78;1.70;;;;;;;23.94;43.46;158537.31;4929551;29;20070;-78
2022/06/15 11:43:18;;;;;;;6.70;1.60;;;;;;;24.22;45.31;158607.09;4934864;28;20487;-79
2022/06/15 11:46:15;;;;;;;7.28;1.55;;;;;;;24.37;47.05;158645.88;4929028;28;21697;-80
2022/06/15 11:48:52;;;;;;;5.35;1.67;;;;;;;24.47;41.37;158670.50;4915602;29;20039;-81
2022/06/15 11:51:51;;;;;;;5.65;1.70;;;;;;;24.22;41.13;158608.44;4922866;28;20042;-81
2022/06/15 11:54:51;;;;;;;4.57;1.80;;;;;;;24.27;45.18;158620.03;4907202;28;20046;-82
2022/06/15 11:57:54;;;;;;;6.30;1.42;;;;;;;24.32;44.42;158633.00;4943210;28;20120;-81
2022/06/15 12:00:39;;;;;;;9.05;2.40;;;;;;;24.33;42.19;158635.53;4924628;29;20554;-79
2022/06/15 12:03:23;;;;;;;5.78;1.80;;;;;;;24.04;43.10;158563.16;4932794;28;20489;-79